createdAt,value
2017-08-15T03:41:55.399Z,944.8
2017-08-15T03:43:02.980Z,944.8
2017-08-15T03:44:11.078Z,944.8
2017-08-15T03:45:19.157Z,944.8
2017-08-15T03:46:27.244Z,944.8
2017-08-15T03:47:35.386Z,944.8
2017-08-15T03:48:43.418Z,944.8
2017-08-15T03:49:51.506Z,944.8
2017-08-15T03:50:59.593Z,944.8
2017-08-15T03:52:07.681Z,944.9
2017-08-15T03:53:16.383Z,944.8
2017-08-15T03:54:23.856Z,944.8
2017-08-15T03:55:31.945Z,944.8
2017-08-15T03:56:40.033Z,944.8
2017-08-15T03:57:48.192Z,944.8
2017-08-15T03:58:56.263Z,944.8
2017-08-15T04:00:04.301Z,944.9
2017-08-15T04:01:12.391Z,944.9
2017-08-15T04:02:20.579Z,944.9
2017-08-15T04:03:28.564Z,944.9
2017-08-15T04:04:37.160Z,944.9
2017-08-15T04:05:44.739Z,944.9
2017-08-15T04:06:52.935Z,944.9
2017-08-15T04:08:00.912Z,944.9
2017-08-15T04:09:09.051Z,944.9
2017-08-15T04:10:17.144Z,945.0
2017-08-15T04:11:25.353Z,945.0
2017-08-15T04:12:33.474Z,945.0
2017-08-15T04:13:41.469Z,945.0
2017-08-15T04:14:49.436Z,945.0
2017-08-15T04:15:58.029Z,945.0
2017-08-15T04:17:05.613Z,945.0
2017-08-15T04:18:13.705Z,945.0
2017-08-15T04:19:21.786Z,945.0
2017-08-15T04:20:29.875Z,945.1
2017-08-15T04:21:38.019Z,945.1
2017-08-15T04:22:46.048Z,945.0
2017-08-15T04:23:54.139Z,945.1
2017-08-15T04:25:02.219Z,945.1
2017-08-15T04:26:10.319Z,945.1
2017-08-15T04:27:18.910Z,945.1
2017-08-15T04:28:26.493Z,945.1
2017-08-15T04:29:36.783Z,945.1
2017-08-15T04:30:43.127Z,945.1
2017-08-15T04:31:50.898Z,945.0
2017-08-15T04:32:59.566Z,945.0
2017-08-15T04:34:06.930Z,945.1
2017-08-15T04:35:15.023Z,945.1
2017-08-15T04:36:23.105Z,945.1
2017-08-15T04:37:31.191Z,945.0
2017-08-15T04:38:39.337Z,945.0
2017-08-15T04:39:47.415Z,945.0
2017-08-15T04:40:55.462Z,945.0
2017-08-15T04:42:03.562Z,945.0
2017-08-15T04:43:11.649Z,944.9
2017-08-15T04:44:20.375Z,945.0
2017-08-15T04:45:27.889Z,945.0
2017-08-15T04:46:35.929Z,945.0
2017-08-15T04:47:44.600Z,945.0
2017-08-15T04:48:52.676Z,945.0
2017-08-15T04:50:00.250Z,945.0
2017-08-15T04:51:08.276Z,945.0
2017-08-15T04:52:16.369Z,945.0
2017-08-15T04:53:24.655Z,944.9
2017-08-15T04:54:32.542Z,944.9
2017-08-15T04:55:40.753Z,944.9
2017-08-15T04:56:48.719Z,945.0
2017-08-15T04:57:56.806Z,945.0
2017-08-15T04:59:04.892Z,945.0
2017-08-15T05:00:12.979Z,945.0
2017-08-15T05:01:21.572Z,945.0
2017-08-15T05:02:29.323Z,945.0
2017-08-15T05:03:37.242Z,945.0
2017-08-15T05:04:45.336Z,945.0
2017-08-15T05:05:53.417Z,945.0
2017-08-15T05:07:01.560Z,945.0
2017-08-15T05:08:09.592Z,945.0
2017-08-15T05:09:17.676Z,945.0
2017-08-15T05:10:25.770Z,945.0
2017-08-15T05:11:33.859Z,945.0
2017-08-15T05:12:42.002Z,945.0
2017-08-15T05:13:50.031Z,945.1
2017-08-15T05:14:58.123Z,945.0
2017-08-15T05:16:06.207Z,945.0
2017-08-15T05:17:14.818Z,945.0
2017-08-15T05:18:22.434Z,945.0
2017-08-15T05:19:30.469Z,945.0
2017-08-15T05:20:38.554Z,945.0
2017-08-15T05:21:46.644Z,945.0
2017-08-15T05:22:54.748Z,945.0
2017-08-15T05:24:02.882Z,945.0
2017-08-15T05:25:10.904Z,945.0
2017-08-15T05:26:19.033Z,945.0
2017-08-15T05:27:27.079Z,945.0
2017-08-15T05:28:35.165Z,945.0
2017-08-15T05:29:43.759Z,945.0
2017-08-15T05:30:51.358Z,945.0
2017-08-15T05:31:59.428Z,945.0
2017-08-15T05:33:07.573Z,945.0
2017-08-15T05:34:15.608Z,945.0
2017-08-15T05:35:23.811Z,945.0
2017-08-15T05:36:31.780Z,945.0
2017-08-15T05:37:39.866Z,945.0
2017-08-15T05:38:47.950Z,945.0
2017-08-15T05:39:56.040Z,945.0
2017-08-15T05:41:04.182Z,945.0
2017-08-15T05:42:12.214Z,945.0
2017-08-15T05:43:20.307Z,945.0
2017-08-15T05:44:28.395Z,945.0
2017-08-15T05:45:36.483Z,945.0
2017-08-15T05:46:45.071Z,945.1
2017-08-15T05:47:52.655Z,945.0
2017-08-15T05:49:00.803Z,945.1
2017-08-15T05:50:08.830Z,945.1
2017-08-15T05:51:16.927Z,945.1
2017-08-15T05:52:25.071Z,945.1
2017-08-15T05:53:33.112Z,945.2
2017-08-15T05:54:41.188Z,945.2
2017-08-15T05:55:49.272Z,945.2
2017-08-15T05:56:57.368Z,945.2
2017-08-15T05:58:06.026Z,945.2
2017-08-15T05:59:13.538Z,945.2
2017-08-15T06:00:21.629Z,945.2
2017-08-15T06:01:29.714Z,945.2
2017-08-15T06:02:37.991Z,945.2
2017-08-15T06:03:45.946Z,945.2
2017-08-15T06:04:54.477Z,945.2
2017-08-15T06:06:02.057Z,945.2
2017-08-15T06:07:10.337Z,945.2
2017-08-15T06:08:18.233Z,945.2
2017-08-15T06:09:26.379Z,945.2
2017-08-15T06:10:34.408Z,945.2
2017-08-15T06:11:42.499Z,945.2
2017-08-15T06:12:50.592Z,945.2
2017-08-15T06:13:58.680Z,945.2
2017-08-15T06:15:07.269Z,945.2
2017-08-15T06:16:15.019Z,945.2
2017-08-15T06:17:22.943Z,945.2
2017-08-15T06:18:31.028Z,945.2
2017-08-15T06:19:39.115Z,945.1
2017-08-15T06:20:47.490Z,945.1
2017-08-15T06:21:55.295Z,945.2
2017-08-15T06:23:03.379Z,945.2
2017-08-15T06:24:11.482Z,945.2
2017-08-15T06:25:19.555Z,945.2
2017-08-15T06:26:27.757Z,945.2
2017-08-15T06:27:35.728Z,945.3
2017-08-15T06:28:43.825Z,945.3
2017-08-15T06:29:52.062Z,945.3
2017-08-15T06:30:59.988Z,945.2
2017-08-15T06:32:08.194Z,945.2
2017-08-15T06:33:16.161Z,945.3
2017-08-15T06:34:24.424Z,945.2
2017-08-15T06:35:32.344Z,945.2
2017-08-15T06:36:40.481Z,945.3
2017-08-15T06:37:48.635Z,945.2
2017-08-15T06:38:56.664Z,945.2
2017-08-15T06:40:04.686Z,945.3
2017-08-15T06:41:12.775Z,945.3
2017-08-15T06:42:20.865Z,945.2
2017-08-15T06:43:29.006Z,945.3
2017-08-15T06:44:37.058Z,945.2
2017-08-15T06:45:45.126Z,945.2
2017-08-15T06:46:53.214Z,945.3
2017-08-15T06:48:01.300Z,945.3
2017-08-15T06:49:09.512Z,945.3
2017-08-15T06:50:17.474Z,945.3
2017-08-15T06:51:25.561Z,945.3
2017-08-15T06:52:33.703Z,945.3
2017-08-15T06:53:41.737Z,945.2
2017-08-15T06:54:49.942Z,945.2
2017-08-15T06:55:57.913Z,945.3
2017-08-15T06:57:05.999Z,945.3
2017-08-15T06:58:14.204Z,945.3
2017-08-15T06:59:22.173Z,945.3
2017-08-15T07:00:30.316Z,945.3
2017-08-15T07:01:38.346Z,945.3
2017-08-15T07:02:46.562Z,945.3
2017-08-15T07:03:54.519Z,945.3
2017-08-15T07:05:02.610Z,945.3
2017-08-15T07:06:10.817Z,945.3
2017-08-15T07:07:18.893Z,945.3
2017-08-15T07:08:26.935Z,945.3
2017-08-15T07:09:34.957Z,945.3
2017-08-15T07:10:43.047Z,945.3
2017-08-15T07:11:51.256Z,945.3
2017-08-15T07:12:59.219Z,945.2
2017-08-15T07:14:07.308Z,945.2
2017-08-15T07:15:15.394Z,945.3
2017-08-15T07:16:23.612Z,945.3
2017-08-15T07:17:31.626Z,945.3
2017-08-15T07:18:39.656Z,945.3
2017-08-15T07:19:47.746Z,945.3
2017-08-15T07:20:55.962Z,945.3
2017-08-15T07:22:03.919Z,945.3
2017-08-15T07:23:12.127Z,945.3
2017-08-15T07:24:20.149Z,945.3
2017-08-15T07:25:28.180Z,945.3
2017-08-15T07:26:36.269Z,945.2
2017-08-15T07:27:44.354Z,945.2
2017-08-15T07:28:52.503Z,945.2
2017-08-15T07:30:00.533Z,945.2
2017-08-15T07:31:08.619Z,945.2
2017-08-15T07:32:16.704Z,945.3
2017-08-15T07:33:24.790Z,945.2
2017-08-15T07:34:32.999Z,945.3
2017-08-15T07:35:41.131Z,945.3
2017-08-15T07:36:49.053Z,945.2
2017-08-15T07:37:57.141Z,945.2
2017-08-15T07:39:05.334Z,945.3
2017-08-15T07:40:13.478Z,945.2
2017-08-15T07:41:21.405Z,945.2
2017-08-15T07:42:29.492Z,945.2
2017-08-15T07:43:37.582Z,945.2
2017-08-15T07:44:45.665Z,945.3
2017-08-15T07:45:53.876Z,945.2
2017-08-15T07:47:01.840Z,945.3
2017-08-15T07:48:09.941Z,945.2
2017-08-15T07:49:18.157Z,945.3
2017-08-15T07:50:26.112Z,945.3
2017-08-15T07:51:34.254Z,945.2
2017-08-15T07:52:42.283Z,945.3
2017-08-15T07:53:50.441Z,945.3
2017-08-15T07:54:58.461Z,945.3
2017-08-15T07:56:06.665Z,945.3
2017-08-15T07:57:14.694Z,945.3
2017-08-15T07:58:22.723Z,945.3
2017-08-15T07:59:30.811Z,945.3
2017-08-15T08:00:38.894Z,945.3
2017-08-15T08:01:46.984Z,945.2
2017-08-15T08:02:55.168Z,945.3
2017-08-15T08:04:03.158Z,945.3
2017-08-15T08:05:11.245Z,945.3
2017-08-15T08:06:19.333Z,945.3
2017-08-15T08:07:27.568Z,945.2
2017-08-15T08:08:35.628Z,945.2
2017-08-15T08:09:43.595Z,945.3
2017-08-15T08:10:51.684Z,945.2
2017-08-15T08:11:59.829Z,945.2
2017-08-15T08:13:07.864Z,945.2
2017-08-15T08:14:16.011Z,945.2
2017-08-15T08:15:24.048Z,945.2
2017-08-15T08:16:32.130Z,945.2
2017-08-15T08:17:40.219Z,945.2
2017-08-15T08:18:48.306Z,945.2
2017-08-15T08:19:56.514Z,945.2
2017-08-15T08:21:04.491Z,945.2
2017-08-15T08:22:12.569Z,945.2
2017-08-15T08:23:20.658Z,945.2
2017-08-15T08:24:28.747Z,945.2
2017-08-15T08:25:37.011Z,945.1
2017-08-15T08:26:44.921Z,945.2
2017-08-15T08:27:53.133Z,945.1
2017-08-15T08:29:01.097Z,945.2
2017-08-15T08:30:09.189Z,945.1
2017-08-15T08:31:17.329Z,945.1
2017-08-15T08:32:25.362Z,945.1
2017-08-15T08:33:33.449Z,945.2
2017-08-15T08:34:41.536Z,945.1
2017-08-15T08:35:49.622Z,945.1
2017-08-15T08:36:57.832Z,945.1
2017-08-15T08:38:05.803Z,945.1
2017-08-15T08:39:13.886Z,945.2
2017-08-15T08:40:21.975Z,945.1
2017-08-15T08:41:30.065Z,945.2
2017-08-15T08:42:38.209Z,945.2
2017-08-15T08:43:46.363Z,945.2
2017-08-15T08:44:54.329Z,945.2
2017-08-15T08:46:02.417Z,945.2
2017-08-15T08:47:10.506Z,945.2
2017-08-15T08:48:18.651Z,945.2
2017-08-15T08:49:26.822Z,945.1
2017-08-15T08:50:34.767Z,945.2
2017-08-15T08:51:42.855Z,945.2
2017-08-15T08:52:50.945Z,945.2
2017-08-15T08:53:59.193Z,945.1
2017-08-15T08:55:07.121Z,945.2
2017-08-15T08:56:15.209Z,945.2
2017-08-15T08:57:23.297Z,945.2
2017-08-15T08:58:31.415Z,945.2
2017-08-15T08:59:39.593Z,945.2
2017-08-15T09:00:47.559Z,945.2
2017-08-15T09:01:55.648Z,945.2
2017-08-15T09:03:03.739Z,945.3
2017-08-15T09:04:11.882Z,945.2
2017-08-15T09:05:19.978Z,945.2
2017-08-15T09:06:28.006Z,945.3
2017-08-15T09:07:36.091Z,945.3
2017-08-15T09:08:44.180Z,945.3
2017-08-15T09:09:52.267Z,945.3
2017-08-15T09:11:00.475Z,945.3
2017-08-15T09:12:08.443Z,945.3
2017-08-15T09:13:16.534Z,945.3
2017-08-15T09:14:24.620Z,945.4
2017-08-15T09:15:32.763Z,945.3
2017-08-15T09:16:40.852Z,945.3
2017-08-15T09:17:48.882Z,945.4
2017-08-15T09:18:56.970Z,945.3
2017-08-15T09:20:05.060Z,945.3
2017-08-15T09:21:13.147Z,945.3
2017-08-15T09:22:21.296Z,945.3
2017-08-15T09:23:29.323Z,945.3
2017-08-15T09:24:37.410Z,945.3
2017-08-15T09:25:45.498Z,945.3
2017-08-15T09:26:53.664Z,945.3
2017-08-15T09:28:01.798Z,945.3
2017-08-15T09:29:09.774Z,945.2
2017-08-15T09:30:17.868Z,945.2
2017-08-15T09:31:26.008Z,945.2
2017-08-15T09:32:34.039Z,945.2
2017-08-15T09:33:42.246Z,945.2
2017-08-15T09:34:50.216Z,945.2
2017-08-15T09:35:58.372Z,945.2
2017-08-15T09:37:06.392Z,945.2
2017-08-15T09:38:14.483Z,945.2
2017-08-15T09:39:22.775Z,945.3
2017-08-15T09:40:30.668Z,945.2
2017-08-15T09:41:38.748Z,945.2
2017-08-15T09:42:46.832Z,945.2
2017-08-15T09:43:54.923Z,945.2
2017-08-15T09:45:03.067Z,945.2
2017-08-15T09:46:11.096Z,945.1
2017-08-15T09:47:19.304Z,945.2
2017-08-15T09:48:27.441Z,945.2
2017-08-15T09:49:35.362Z,945.1
2017-08-15T09:50:43.506Z,945.1
2017-08-15T09:51:51.537Z,945.1
2017-08-15T09:52:59.802Z,945.1
2017-08-15T09:54:07.715Z,945.1
2017-08-15T09:55:15.860Z,945.1
2017-08-15T09:56:24.012Z,945.2
2017-08-15T09:57:31.979Z,945.1
2017-08-15T09:58:40.072Z,945.2
2017-08-15T09:59:48.155Z,945.2
2017-08-15T10:00:56.246Z,945.2
2017-08-15T10:02:04.562Z,945.2
2017-08-15T10:03:12.542Z,945.2
2017-08-15T10:04:20.513Z,945.1
2017-08-15T10:05:28.598Z,945.2
2017-08-15T10:06:36.686Z,945.1
2017-08-15T10:07:44.911Z,945.2
2017-08-15T10:08:52.865Z,945.2
2017-08-15T10:10:00.950Z,945.1
2017-08-15T10:11:09.042Z,945.1
2017-08-15T10:12:17.129Z,945.1
2017-08-15T10:13:25.338Z,945.2
2017-08-15T10:14:33.305Z,945.1
2017-08-15T10:15:41.390Z,945.1
2017-08-15T10:16:49.657Z,945.1
2017-08-15T10:17:57.587Z,945.1
2017-08-15T10:19:05.716Z,945.1
2017-08-15T10:20:13.745Z,945.1
2017-08-15T10:21:21.981Z,945.2
2017-08-15T10:22:29.924Z,945.2
2017-08-15T10:23:38.016Z,945.2
2017-08-15T10:24:46.221Z,945.2
2017-08-15T10:25:54.227Z,945.2
2017-08-15T10:27:02.284Z,945.2
2017-08-15T10:28:10.364Z,945.2
2017-08-15T10:29:18.454Z,945.1
2017-08-15T10:30:26.599Z,945.1
2017-08-15T10:31:34.631Z,945.1
2017-08-15T10:32:42.721Z,945.1
2017-08-15T10:33:50.816Z,945.1
2017-08-15T10:34:59.019Z,945.1
2017-08-15T10:36:07.040Z,945.1
2017-08-15T10:37:15.074Z,945.1
2017-08-15T10:38:23.163Z,945.1
2017-08-15T10:39:31.274Z,945.1
2017-08-15T10:40:39.414Z,945.1
2017-08-15T10:41:47.496Z,945.0
2017-08-15T10:42:55.561Z,945.0
2017-08-15T10:44:03.655Z,945.0
2017-08-15T10:45:11.714Z,945.0
2017-08-15T10:46:19.808Z,945.0
2017-08-15T10:47:27.946Z,945.0
2017-08-15T10:48:36.088Z,945.0
2017-08-15T10:49:44.067Z,945.0
2017-08-15T10:50:52.279Z,945.0
2017-08-15T10:52:00.243Z,945.0
2017-08-15T10:53:08.490Z,945.0
2017-08-15T10:54:16.422Z,945.0
2017-08-15T10:55:24.512Z,945.0
2017-08-15T10:56:32.599Z,945.0
2017-08-15T10:57:40.688Z,945.0
2017-08-15T10:58:48.934Z,945.0
2017-08-15T10:59:56.867Z,945.0
2017-08-15T11:01:04.954Z,945.0
2017-08-15T11:02:13.052Z,945.0
2017-08-15T11:03:21.130Z,945.0
2017-08-15T11:04:29.275Z,944.9
2017-08-15T11:05:37.309Z,944.9
2017-08-15T11:06:45.623Z,944.9
2017-08-15T11:07:53.489Z,944.9
2017-08-15T11:09:01.568Z,944.9
2017-08-15T11:10:09.727Z,944.9
2017-08-15T11:11:17.760Z,944.9
2017-08-15T11:12:25.850Z,944.9
2017-08-15T11:13:33.935Z,944.9
2017-08-15T11:14:42.027Z,944.9
2017-08-15T11:15:50.252Z,944.9
2017-08-15T11:16:58.219Z,944.9
2017-08-15T11:18:06.309Z,944.9
2017-08-15T11:19:14.398Z,944.9
2017-08-15T11:20:22.488Z,944.9
2017-08-15T11:21:30.696Z,944.9
2017-08-15T11:22:38.722Z,944.9
2017-08-15T11:23:46.755Z,944.9
2017-08-15T11:24:54.843Z,944.9
2017-08-15T11:26:02.929Z,944.9
2017-08-15T11:27:11.074Z,944.9
2017-08-15T11:28:19.107Z,944.8
2017-08-15T11:29:27.205Z,944.8
2017-08-15T11:30:35.284Z,944.8
2017-08-15T11:31:43.377Z,944.8
2017-08-15T11:32:51.521Z,944.8
2017-08-15T11:33:59.555Z,944.8
2017-08-15T11:35:07.643Z,944.8
2017-08-15T11:36:15.730Z,944.8
2017-08-15T11:37:23.819Z,944.8
2017-08-15T11:38:32.028Z,944.8
2017-08-15T11:39:40.059Z,944.8
2017-08-15T11:40:48.084Z,944.8
2017-08-15T11:41:56.173Z,944.8
2017-08-15T11:43:04.263Z,944.8
2017-08-15T11:44:12.408Z,944.8
2017-08-15T11:45:20.440Z,944.8
2017-08-15T11:46:28.529Z,944.8
2017-08-15T11:47:36.814Z,944.8
2017-08-15T11:48:44.706Z,944.8
2017-08-15T11:49:52.917Z,944.7
2017-08-15T11:51:00.884Z,944.7
2017-08-15T11:52:08.977Z,944.8
2017-08-15T11:53:17.081Z,944.8
2017-08-15T11:54:25.276Z,944.8
2017-08-15T11:55:33.297Z,944.7
2017-08-15T11:56:41.331Z,944.7
2017-08-15T11:57:49.533Z,944.8
2017-08-15T11:58:57.508Z,944.8
2017-08-15T12:00:05.597Z,944.8
2017-08-15T12:01:13.885Z,944.8
2017-08-15T12:02:21.879Z,944.8
2017-08-15T12:03:29.865Z,944.8
2017-08-15T12:04:37.955Z,944.8
2017-08-15T12:05:46.161Z,944.8
2017-08-15T12:06:54.281Z,944.7
2017-08-15T12:08:02.218Z,944.8
2017-08-15T12:09:10.309Z,944.7
2017-08-15T12:10:18.451Z,944.7
2017-08-15T12:11:26.607Z,944.7
2017-08-15T12:12:34.578Z,944.7
2017-08-15T12:13:42.664Z,944.7
2017-08-15T12:14:50.750Z,944.6
2017-08-15T12:15:58.838Z,944.7
2017-08-15T12:17:07.227Z,944.7
2017-08-15T12:18:15.019Z,944.8
2017-08-15T12:19:23.108Z,944.8
2017-08-15T12:20:31.196Z,944.8
2017-08-15T12:21:39.283Z,944.8
2017-08-15T12:22:47.498Z,944.8
2017-08-15T12:23:55.464Z,944.8
2017-08-15T12:25:03.559Z,944.8
2017-08-15T12:26:11.696Z,944.7
2017-08-15T12:27:19.729Z,944.7
2017-08-15T12:28:27.941Z,944.8
2017-08-15T12:29:36.101Z,944.7
2017-08-15T12:30:43.995Z,944.7
2017-08-15T12:31:52.087Z,944.8
2017-08-15T12:33:00.175Z,944.7
2017-08-15T12:34:08.399Z,944.8
2017-08-15T12:35:16.369Z,944.7
2017-08-15T12:36:24.460Z,944.8
2017-08-15T12:37:32.548Z,944.8
2017-08-15T12:38:40.637Z,944.7
2017-08-15T12:39:48.850Z,944.7
2017-08-15T12:40:56.814Z,944.7
2017-08-15T12:42:05.025Z,944.7
2017-08-15T12:43:13.058Z,944.7
2017-08-15T12:44:21.082Z,944.7
2017-08-15T12:45:29.270Z,944.7
2017-08-15T12:46:37.261Z,944.7
2017-08-15T12:47:45.511Z,944.7
2017-08-15T12:48:53.441Z,944.7
2017-08-15T12:50:01.530Z,944.6
2017-08-15T12:51:09.738Z,944.6
2017-08-15T12:52:17.709Z,944.6
2017-08-15T12:53:25.884Z,944.6
2017-08-15T12:54:33.888Z,944.6
2017-08-15T12:55:41.974Z,944.6
2017-08-15T12:56:50.120Z,944.5
2017-08-15T12:57:58.349Z,944.6
2017-08-15T12:59:06.256Z,944.6
2017-08-15T13:00:14.370Z,944.7
2017-08-15T13:01:22.434Z,944.7
2017-08-15T13:02:30.642Z,944.7
2017-08-15T13:03:38.611Z,944.6
2017-08-15T13:04:46.701Z,944.6
2017-08-15T13:05:54.793Z,944.6
2017-08-15T13:07:02.880Z,944.6
2017-08-15T13:08:11.027Z,944.6
2017-08-15T13:09:19.064Z,944.5
2017-08-15T13:10:27.153Z,944.5
2017-08-15T13:11:35.375Z,944.5
2017-08-15T13:12:43.335Z,944.5
2017-08-15T13:13:51.544Z,944.4
2017-08-15T13:14:59.511Z,944.4
2017-08-15T13:16:07.603Z,944.4
2017-08-15T13:17:15.689Z,944.4
2017-08-15T13:18:23.778Z,944.4
2017-08-15T13:19:31.924Z,944.4
2017-08-15T13:20:39.959Z,944.4
2017-08-15T13:21:48.056Z,944.4
2017-08-15T13:22:56.147Z,944.4
2017-08-15T13:24:04.235Z,944.4
2017-08-15T13:25:12.636Z,944.4
2017-08-15T13:26:20.415Z,944.3
2017-08-15T13:27:28.506Z,944.3
2017-08-15T13:28:36.593Z,944.3
2017-08-15T13:29:44.738Z,944.3
2017-08-15T13:30:52.891Z,944.3
2017-08-15T13:32:00.861Z,944.3
